Time;durP1;ratioP1;P1;durP2;ratioP2;P2;SDS_P1;SDS_P2;PMS_P1;PMS_P2;Temp;Humidity;BMP_temperature;BMP_pressure;BME280_temperature;BME280_humidity;BME280_pressure;Samples;Min_cycle;Max_cycle;Signal;HPM_P1;HPM_P2
2022/02/06 00:01:54;;;;;;;2.03;0.90;;;;;;;;;;4524802;28;20646;-60
2022/02/06 00:04:04;;;;;;;2.53;0.87;;;;;;;;;;4523663;28;20036;-60
2022/02/06 00:06:15;;;;;;;0.97;0.67;;;;;;;;;;4525245;28;20553;-60
2022/02/06 00:08:26;;;;;;;1.27;0.60;;;;;;;;;;4524690;28;20037;-60
2022/02/06 00:10:37;;;;;;;3.10;0.90;;;;;;;;;;4525297;28;20045;-60
2022/02/06 00:12:48;;;;;;;2.38;0.80;;;;;;;;;;4525930;28;20037;-61
2022/02/06 00:14:58;;;;;;;2.57;0.80;;;;;;;;;;4523658;28;20017;-60
2022/02/06 00:17:09;;;;;;;1.50;0.83;;;;;;;;;;4523647;28;20264;-60
2022/02/06 00:19:19;;;;;;;2.35;1.17;;;;;;;;;;4523367;28;20029;-60
2022/02/06 00:21:32;;;;;;;1.80;0.83;;;;;;;;;;4526993;28;36598;-61
2022/02/06 00:23:45;;;;;;;1.70;0.82;;;;;;;;;;4528543;28;20809;-61
2022/02/06 00:26:06;;;;;;;1.73;0.80;;;;;;;;;;4527370;28;20063;-61
2022/02/06 00:30:50;;;;;;;3.10;1.40;;;;;;;;;;4527869;28;20525;-60
2022/02/06 00:33:12;;;;;;;2.30;0.70;;;;;;;;;;4528553;28;20041;-60
2022/02/06 00:35:40;;;;;;;1.77;0.82;;;;;;;;;;4527737;28;20513;-60
2022/02/06 00:40:14;;;;;;;0.80;0.50;;;;;;;;;;4528118;28;20013;-60
2022/02/06 00:42:25;;;;;;;1.88;0.70;;;;;;;;;;4527476;28;20037;-60
2022/02/06 00:44:35;;;;;;;1.70;0.80;;;;;;;;;;4527105;28;20261;-60
2022/02/06 00:46:46;;;;;;;1.60;0.70;;;;;;;;;;4526766;28;20026;-60
2022/02/06 00:48:59;;;;;;;0.87;0.67;;;;;;;;;;4526855;28;20530;-60
2022/02/06 00:51:15;;;;;;;1.15;0.70;;;;;;;;;;4528414;28;20033;-60
2022/02/06 00:53:26;;;;;;;1.08;0.60;;;;;;;;;;4526304;28;20136;-60
2022/02/06 00:55:36;;;;;;;3.30;0.80;;;;;;;;;;4526745;28;23222;-60
2022/02/06 00:57:46;;;;;;;1.03;0.53;;;;;;;;;;4528614;28;24095;-60
2022/02/06 00:59:57;;;;;;;1.07;0.40;;;;;;;;;;4536263;28;20036;-60
2022/02/06 01:02:07;;;;;;;1.07;0.50;;;;;;;;;;4530407;28;20444;-61
2022/02/06 01:04:17;;;;;;;2.00;0.80;;;;;;;;;;4526520;28;38969;-60
2022/02/06 01:06:28;;;;;;;1.17;0.50;;;;;;;;;;4528009;28;20032;-60
2022/02/06 01:08:39;;;;;;;0.70;0.37;;;;;;;;;;4529563;28;20045;-60
2022/02/06 01:10:50;;;;;;;3.28;0.80;;;;;;;;;;4526779;28;20025;-60
2022/02/06 01:13:14;;;;;;;1.63;0.90;;;;;;;;;;4525923;28;20069;-60
2022/02/06 01:15:33;;;;;;;1.70;0.57;;;;;;;;;;4527525;28;20102;-60
2022/02/06 01:17:55;;;;;;;0.98;0.60;;;;;;;;;;4525972;28;20025;-60
2022/02/06 01:20:15;;;;;;;1.08;0.60;;;;;;;;;;4528411;28;20584;-61
2022/02/06 01:22:28;;;;;;;1.45;0.60;;;;;;;;;;4528861;28;20034;-60
2022/02/06 01:24:44;;;;;;;1.20;0.60;;;;;;;;;;4526855;28;20108;-60
2022/02/06 01:27:04;;;;;;;1.35;0.60;;;;;;;;;;4527954;28;20099;-60
2022/02/06 01:29:32;;;;;;;1.58;0.63;;;;;;;;;;4532182;28;20128;-60
2022/02/06 01:33:59;;;;;;;1.23;0.60;;;;;;;;;;4527728;28;20033;-60
2022/02/06 01:36:25;;;;;;;1.38;0.60;;;;;;;;;;4527370;28;20492;-60
2022/02/06 01:41:17;;;;;;;1.35;0.60;;;;;;;;;;4517473;28;20159;-60
2022/02/06 01:43:39;;;;;;;1.08;0.40;;;;;;;;;;4526845;28;20796;-60
2022/02/06 02:17:23;;;;;;;1.08;0.50;;;;;;;;;;4526564;28;20025;-60
2022/02/06 02:29:26;;;;;;;1.85;0.77;;;;;;;;;;4527226;28;20034;-60
2022/02/06 02:44:49;;;;;;;3.35;1.02;;;;;;;;;;4525067;28;20020;-60
2022/02/06 02:47:11;;;;;;;2.20;0.80;;;;;;;;;;4523469;28;20069;-60
2022/02/06 02:48:49;;;;;;;1.73;0.80;;;;;;;;;;4523284;28;20600;-61
2022/02/06 02:51:04;;;;;;;1.75;0.60;;;;;;;;;;4518678;28;20820;-60
2022/02/06 02:57:44;;;;;;;1.83;0.77;;;;;;;;;;4525481;28;20038;-60
2022/02/06 03:02:11;;;;;;;1.42;0.70;;;;;;;;;;4527170;28;20072;-60
2022/02/06 03:04:21;;;;;;;1.03;0.60;;;;;;;;;;4525619;28;20413;-60
2022/02/06 03:06:32;;;;;;;2.90;0.70;;;;;;;;;;4525645;28;20909;-60
2022/02/06 03:08:44;;;;;;;1.87;0.90;;;;;;;;;;4523839;28;21422;-60
2022/02/06 03:10:57;;;;;;;1.17;0.60;;;;;;;;;;4527974;28;20021;-60
2022/02/06 03:13:11;;;;;;;1.83;0.80;;;;;;;;;;4526657;28;20882;-60
2022/02/06 03:15:35;;;;;;;1.38;0.77;;;;;;;;;;4526504;28;20017;-59
2022/02/06 03:17:56;;;;;;;1.13;0.60;;;;;;;;;;4526834;28;20025;-60
2022/02/06 03:20:10;;;;;;;1.30;0.60;;;;;;;;;;4523129;28;20022;-61
2022/02/06 03:22:21;;;;;;;1.73;0.70;;;;;;;;;;4527574;28;20113;-60
2022/02/06 03:24:40;;;;;;;1.75;0.70;;;;;;;;;;4526707;28;20452;-61
2022/02/06 03:26:52;;;;;;;1.80;0.65;;;;;;;;;;4523984;28;20038;-60
2022/02/06 03:29:03;;;;;;;1.77;0.80;;;;;;;;;;4523273;28;20076;-60
2022/02/06 03:31:14;;;;;;;2.67;0.75;;;;;;;;;;4534146;28;20934;-60
2022/02/06 03:33:24;;;;;;;1.17;0.50;;;;;;;;;;4526916;28;20045;-60
2022/02/06 03:35:35;;;;;;;0.80;0.43;;;;;;;;;;4533643;28;36839;-60
2022/02/06 03:37:46;;;;;;;0.80;0.60;;;;;;;;;;4526070;28;20017;-60
2022/02/06 03:39:59;;;;;;;1.37;0.60;;;;;;;;;;4532459;28;20488;-60
2022/02/06 03:42:14;;;;;;;0.70;0.55;;;;;;;;;;4525498;28;20036;-60
2022/02/06 03:44:35;;;;;;;1.27;0.50;;;;;;;;;;4526222;28;20137;-60
2022/02/06 03:46:57;;;;;;;0.55;0.45;;;;;;;;;;4525413;28;20140;-60
2022/02/06 03:49:13;;;;;;;1.00;0.57;;;;;;;;;;4525549;28;20025;-60
2022/02/06 03:51:35;;;;;;;1.05;0.60;;;;;;;;;;4523627;28;20029;-60
2022/02/06 03:53:47;;;;;;;1.35;0.70;;;;;;;;;;4523889;28;20049;-60
2022/02/06 03:55:59;;;;;;;1.45;0.60;;;;;;;;;;4531271;28;20025;-60
2022/02/06 03:58:10;;;;;;;1.80;0.60;;;;;;;;;;4533988;28;20031;-60
2022/02/06 04:00:24;;;;;;;1.27;0.50;;;;;;;;;;4529986;28;43627;-60
2022/02/06 04:02:34;;;;;;;1.00;0.50;;;;;;;;;;4525992;28;20030;-60
2022/02/06 04:04:44;;;;;;;1.40;0.67;;;;;;;;;;4530812;28;28182;-60
2022/02/06 04:07:01;;;;;;;0.60;0.50;;;;;;;;;;4529894;28;25092;-59
2022/02/06 04:09:17;;;;;;;1.45;0.50;;;;;;;;;;4531463;28;20120;-60
2022/02/06 04:11:46;;;;;;;1.42;0.60;;;;;;;;;;4529470;28;20120;-61
2022/02/06 04:14:08;;;;;;;0.80;0.47;;;;;;;;;;4532682;28;20128;-60
2022/02/06 04:16:25;;;;;;;;;;;;;;;;;;4531890;28;20032;-61
2022/02/06 04:18:47;;;;;;;1.20;0.43;;;;;;;;;;4530211;28;19908;-60
2022/02/06 04:20:57;;;;;;;1.17;0.60;;;;;;;;;;4532473;28;20029;-60
2022/02/06 04:23:09;;;;;;;2.17;0.63;;;;;;;;;;4530668;28;23153;-60
2022/02/06 04:25:19;;;;;;;1.05;0.52;;;;;;;;;;4512451;28;20042;-61
2022/02/06 04:27:30;;;;;;;0.77;0.50;;;;;;;;;;4533495;28;20022;-60
2022/02/06 04:29:40;;;;;;;1.10;0.45;;;;;;;;;;4530728;28;20499;-60
2022/02/06 04:31:51;;;;;;;0.50;0.50;;;;;;;;;;4529491;28;20121;-60
2022/02/06 04:34:01;;;;;;;0.77;0.60;;;;;;;;;;4529728;28;20017;-59
2022/02/06 04:36:14;;;;;;;1.83;0.53;;;;;;;;;;4531001;28;38828;-61
2022/02/06 04:48:36;;;;;;;0.60;0.50;;;;;;;;;;4530946;28;20033;-60
2022/02/06 05:21:55;;;;;;;0.73;0.40;;;;;;;;;;4527592;28;20033;-61
2022/02/06 05:26:42;;;;;;;0.60;0.50;;;;;;;;;;4527492;28;20036;-61
2022/02/06 05:31:08;;;;;;;0.30;0.30;;;;;;;;;;4530926;28;20021;-60
2022/02/06 05:33:19;;;;;;;1.25;0.52;;;;;;;;;;4527174;28;20101;-61
2022/02/06 05:35:33;;;;;;;1.13;0.60;;;;;;;;;;4526599;28;20108;-61
2022/02/06 05:37:43;;;;;;;0.73;0.50;;;;;;;;;;4526105;28;20025;-61
2022/02/06 05:39:54;;;;;;;0.33;0.30;;;;;;;;;;4525721;28;20022;-61
2022/02/06 05:42:05;;;;;;;1.10;0.53;;;;;;;;;;4525679;28;24219;-60
2022/02/06 05:44:15;;;;;;;2.83;0.70;;;;;;;;;;4528043;28;20032;-60
2022/02/06 05:46:25;;;;;;;0.77;0.57;;;;;;;;;;4527838;28;20402;-61
2022/02/06 05:48:36;;;;;;;0.70;0.40;;;;;;;;;;4528693;28;20029;-60
2022/02/06 05:50:46;;;;;;;2.10;0.60;;;;;;;;;;4536143;28;20057;-61
2022/02/06 05:52:57;;;;;;;0.93;0.50;;;;;;;;;;4528643;28;20056;-60
2022/02/06 05:55:09;;;;;;;1.00;0.50;;;;;;;;;;4526155;28;29745;-60
2022/02/06 05:57:21;;;;;;;1.90;0.40;;;;;;;;;;4528008;28;20558;-60
2022/02/06 05:59:32;;;;;;;0.50;0.40;;;;;;;;;;4526368;28;20030;-60
2022/02/06 06:01:42;;;;;;;0.50;0.40;;;;;;;;;;4528321;28;20033;-60
2022/02/06 06:03:53;;;;;;;0.70;0.43;;;;;;;;;;4525746;28;23535;-60
2022/02/06 06:06:03;;;;;;;0.70;0.40;;;;;;;;;;4526549;28;20028;-60
2022/02/06 06:08:14;;;;;;;1.43;0.53;;;;;;;;;;4526043;28;20026;-60
2022/02/06 06:10:24;;;;;;;0.97;0.40;;;;;;;;;;4527048;28;45146;-60
2022/02/06 06:12:36;;;;;;;1.07;0.50;;;;;;;;;;4542462;28;20052;-59
2022/02/06 06:14:47;;;;;;;0.55;0.40;;;;;;;;;;4527947;28;20044;-60
2022/02/06 06:16:58;;;;;;;;;;;;;;;;;;4526431;28;20921;-60
2022/02/06 06:19:08;;;;;;;0.57;0.50;;;;;;;;;;4527152;28;19932;-60
2022/02/06 06:21:22;;;;;;;0.73;0.43;;;;;;;;;;4525311;28;20037;-60
2022/02/06 06:23:32;;;;;;;0.80;0.60;;;;;;;;;;4525635;28;20983;-60
2022/02/06 06:25:44;;;;;;;0.77;0.30;;;;;;;;;;4527276;28;20033;-60
2022/02/06 06:27:55;;;;;;;1.45;0.70;;;;;;;;;;4535026;28;20033;-60
2022/02/06 06:30:07;;;;;;;0.52;0.40;;;;;;;;;;4527138;28;20022;-60
2022/02/06 06:32:17;;;;;;;0.30;0.30;;;;;;;;;;4527621;28;20041;-60
2022/02/06 06:34:27;;;;;;;0.47;0.30;;;;;;;;;;4526468;28;20061;-60
2022/02/06 06:36:38;;;;;;;0.40;0.30;;;;;;;;;;4526233;28;24270;-60
2022/02/06 06:38:50;;;;;;;0.47;0.47;;;;;;;;;;4526675;28;20564;-60
2022/02/06 06:41:02;;;;;;;0.77;0.50;;;;;;;;;;4526627;28;20035;-60
2022/02/06 06:43:12;;;;;;;0.85;0.45;;;;;;;;;;4525381;28;20005;-60
2022/02/06 06:45:23;;;;;;;0.47;0.40;;;;;;;;;;4525357;28;20379;-60
2022/02/06 06:47:33;;;;;;;0.80;0.50;;;;;;;;;;4526008;28;20033;-60
2022/02/06 06:49:44;;;;;;;0.70;0.43;;;;;;;;;;4525389;28;37638;-60
2022/02/06 06:51:55;;;;;;;0.30;0.30;;;;;;;;;;4525808;28;28956;-60
2022/02/06 06:54:12;;;;;;;0.93;0.52;;;;;;;;;;4527169;28;20035;-60
2022/02/06 06:56:32;;;;;;;1.35;0.65;;;;;;;;;;4531180;28;20029;-60
2022/02/06 06:58:47;;;;;;;0.52;0.50;;;;;;;;;;4525420;28;20029;-60
2022/02/06 07:03:11;;;;;;;0.75;0.40;;;;;;;;;;4526390;28;20151;-61
2022/02/06 07:05:21;;;;;;;0.90;0.50;;;;;;;;;;4525614;28;20168;-60
2022/02/06 07:07:33;;;;;;;0.63;0.47;;;;;;;;;;4522938;28;27777;-60
2022/02/06 07:09:43;;;;;;;1.08;0.60;;;;;;;;;;4541703;28;20025;-60
2022/02/06 07:11:53;;;;;;;0.30;0.30;;;;;;;;;;4524489;28;20026;-60
2022/02/06 07:14:04;;;;;;;0.67;0.47;;;;;;;;;;4525270;28;20542;-60
2022/02/06 07:16:14;;;;;;;0.57;0.40;;;;;;;;;;4525902;28;26742;-60
2022/02/06 07:18:24;;;;;;;0.40;0.40;;;;;;;;;;4524595;28;34849;-60
2022/02/06 07:20:36;;;;;;;0.40;0.30;;;;;;;;;;4526972;28;20037;-60
2022/02/06 07:22:47;;;;;;;1.40;0.50;;;;;;;;;;4534245;28;20052;-60
2022/02/06 07:24:57;;;;;;;1.27;0.40;;;;;;;;;;4523921;28;20037;-60
2022/02/06 07:29:28;;;;;;;0.35;0.30;;;;;;;;;;4524954;28;20032;-60
2022/02/06 07:31:41;;;;;;;0.50;0.50;;;;;;;;;;4528647;28;20071;-60
2022/02/06 07:33:53;;;;;;;0.68;0.45;;;;;;;;;;4527657;28;20052;-60
2022/02/06 07:36:03;;;;;;;;;;;;;;;;;;4517408;28;20052;-60
2022/02/06 07:38:14;;;;;;;0.60;0.50;;;;;;;;;;4525125;28;19975;-60
2022/02/06 07:40:25;;;;;;;1.07;0.60;;;;;;;;;;4527469;28;20041;-61
2022/02/06 07:42:35;;;;;;;1.07;0.67;;;;;;;;;;4526852;28;20088;-60
2022/02/06 07:44:52;;;;;;;1.27;0.65;;;;;;;;;;4533844;28;20286;-62
2022/02/06 07:47:13;;;;;;;1.60;1.30;;;;;;;;;;4524580;28;20040;-61
2022/02/06 07:49:24;;;;;;;1.50;1.05;;;;;;;;;;4525947;28;20065;-61
2022/02/06 07:51:35;;;;;;;1.20;0.70;;;;;;;;;;4524655;28;20124;-61
2022/02/06 07:53:45;;;;;;;1.13;1.02;;;;;;;;;;4526025;28;20045;-61
2022/02/06 07:55:56;;;;;;;0.47;0.47;;;;;;;;;;4526178;28;31348;-61
2022/02/06 07:58:06;;;;;;;0.80;0.50;;;;;;;;;;4506968;28;20040;-61
2022/02/06 08:00:17;;;;;;;0.73;0.67;;;;;;;;;;4527112;28;20065;-61
2022/02/06 08:02:27;;;;;;;1.13;0.60;;;;;;;;;;4526444;28;20030;-61
2022/02/06 08:04:38;;;;;;;0.73;0.60;;;;;;;;;;4522207;28;20416;-61
2022/02/06 08:06:51;;;;;;;0.80;0.70;;;;;;;;;;4531341;28;20048;-61
2022/02/06 08:09:03;;;;;;;1.15;0.75;;;;;;;;;;4523909;28;20061;-61
2022/02/06 08:11:14;;;;;;;0.40;0.40;;;;;;;;;;4524971;28;20041;-61
2022/02/06 08:13:38;;;;;;;0.43;0.40;;;;;;;;;;4525103;28;20812;-61
2022/02/06 08:15:48;;;;;;;0.68;0.50;;;;;;;;;;4523890;28;20040;-61
2022/02/06 08:17:59;;;;;;;0.40;0.30;;;;;;;;;;4523521;28;20040;-61
2022/02/06 08:20:12;;;;;;;0.50;0.30;;;;;;;;;;4524491;28;20124;-61
2022/02/06 08:22:23;;;;;;;0.57;0.30;;;;;;;;;;4524698;28;20096;-61
2022/02/06 08:24:34;;;;;;;0.65;0.38;;;;;;;;;;4522960;28;20044;-60
2022/02/06 08:26:44;;;;;;;0.30;0.30;;;;;;;;;;4531954;28;31814;-61
2022/02/06 08:28:59;;;;;;;0.50;0.40;;;;;;;;;;4523535;28;20417;-62
2022/02/06 08:31:10;;;;;;;1.45;0.60;;;;;;;;;;4523194;28;20021;-61
2022/02/06 08:33:20;;;;;;;0.50;0.50;;;;;;;;;;4524803;28;20052;-61
2022/02/06 08:35:32;;;;;;;0.33;0.30;;;;;;;;;;4521928;28;39769;-61
2022/02/06 08:37:43;;;;;;;0.50;0.50;;;;;;;;;;4524756;28;21005;-61
2022/02/06 08:39:55;;;;;;;0.40;0.40;;;;;;;;;;4522789;28;20037;-61
2022/02/06 08:42:09;;;;;;;0.40;0.40;;;;;;;;;;4523200;28;20563;-61
2022/02/06 08:44:20;;;;;;;0.30;0.30;;;;;;;;;;4525780;28;20038;-61
2022/02/06 08:46:31;;;;;;;0.40;0.30;;;;;;;;;;4514583;28;20041;-61
2022/02/06 08:48:41;;;;;;;0.20;0.20;;;;;;;;;;4534238;28;38066;-61
2022/02/06 08:50:52;;;;;;;0.40;0.40;;;;;;;;;;4527059;28;20042;-61
2022/02/06 08:53:02;;;;;;;0.30;0.30;;;;;;;;;;4525869;28;40017;-61
2022/02/06 08:55:13;;;;;;;0.40;0.30;;;;;;;;;;4509567;28;20842;-61
2022/02/06 08:57:26;;;;;;;0.53;0.20;;;;;;;;;;4526628;28;20037;-61
2022/02/06 08:59:36;;;;;;;0.50;0.30;;;;;;;;;;4525344;28;20812;-61
2022/02/06 09:01:46;;;;;;;0.33;0.23;;;;;;;;;;4526230;28;39541;-60
2022/02/06 09:03:57;;;;;;;0.33;0.30;;;;;;;;;;4525269;28;20029;-61
2022/02/06 09:06:09;;;;;;;0.30;0.30;;;;;;;;;;4527861;28;20033;-61
2022/02/06 09:08:19;;;;;;;0.70;0.50;;;;;;;;;;4525786;28;20045;-60
2022/02/06 09:10:31;;;;;;;0.43;0.30;;;;;;;;;;4525148;28;32112;-61
2022/02/06 09:12:47;;;;;;;1.38;0.22;;;;;;;;;;4525695;28;20067;-61
2022/02/06 09:14:58;;;;;;;1.27;0.80;;;;;;;;;;4523885;28;20038;-60
2022/02/06 09:17:09;;;;;;;0.97;0.33;;;;;;;;;;4527992;28;20029;-61
2022/02/06 09:19:20;;;;;;;0.50;0.50;;;;;;;;;;4526170;28;20738;-61
2022/02/06 09:21:31;;;;;;;0.30;0.30;;;;;;;;;;4525823;28;20687;-61
2022/02/06 09:23:41;;;;;;;0.30;0.30;;;;;;;;;;4527136;28;20481;-61
2022/02/06 09:25:52;;;;;;;0.37;0.30;;;;;;;;;;4526591;28;20041;-61
2022/02/06 09:28:02;;;;;;;0.50;0.23;;;;;;;;;;4527415;28;20092;-61
2022/02/06 09:30:17;;;;;;;0.40;0.40;;;;;;;;;;4527201;28;20639;-61
2022/02/06 09:36:51;;;;;;;0.50;0.45;;;;;;;;;;4525516;28;20017;-60
2022/02/06 09:39:03;;;;;;;0.50;0.40;;;;;;;;;;4526650;28;27804;-61
2022/02/06 09:41:15;;;;;;;0.30;0.30;;;;;;;;;;4526177;28;20144;-61
2022/02/06 09:43:29;;;;;;;0.80;0.50;;;;;;;;;;4526221;28;20055;-60
2022/02/06 09:45:46;;;;;;;0.30;0.30;;;;;;;;;;4526919;28;20091;-61
2022/02/06 09:47:57;;;;;;;0.47;0.40;;;;;;;;;;4526939;28;20766;-61
2022/02/06 09:50:08;;;;;;;0.95;0.50;;;;;;;;;;4524866;28;20029;-60
2022/02/06 09:52:25;;;;;;;0.50;0.40;;;;;;;;;;4528151;28;20045;-61
2022/02/06 09:54:35;;;;;;;0.40;0.40;;;;;;;;;;4525855;28;20120;-61
2022/02/06 09:56:49;;;;;;;0.87;0.53;;;;;;;;;;4525050;28;24203;-61
2022/02/06 09:59:06;;;;;;;0.30;0.30;;;;;;;;;;4529242;28;20041;-60
2022/02/06 10:01:17;;;;;;;0.57;0.40;;;;;;;;;;4526874;28;20036;-61
2022/02/06 10:03:30;;;;;;;0.30;0.30;;;;;;;;;;4526032;28;20044;-60
2022/02/06 10:05:45;;;;;;;0.75;0.30;;;;;;;;;;4527382;28;20125;-60
2022/02/06 10:08:14;;;;;;;0.30;0.30;;;;;;;;;;4526178;28;20032;-61
2022/02/06 10:10:26;;;;;;;0.30;0.20;;;;;;;;;;4528816;28;20029;-61
2022/02/06 10:12:41;;;;;;;0.20;0.20;;;;;;;;;;4525181;28;20095;-61
2022/02/06 10:14:52;;;;;;;0.20;0.20;;;;;;;;;;4525193;28;20044;-61
2022/02/06 10:17:03;;;;;;;0.30;0.30;;;;;;;;;;4526168;28;20080;-61
2022/02/06 10:19:15;;;;;;;0.20;0.20;;;;;;;;;;4526119;28;20801;-61
2022/02/06 10:21:35;;;;;;;0.40;0.20;;;;;;;;;;4525645;28;20064;-61
2022/02/06 10:23:52;;;;;;;0.30;0.30;;;;;;;;;;4534313;28;20040;-60
2022/02/06 10:26:07;;;;;;;1.10;0.40;;;;;;;;;;4525471;28;20044;-61
2022/02/06 10:30:45;;;;;;;0.20;0.20;;;;;;;;;;4526376;28;20043;-61
2022/02/06 10:32:55;;;;;;;0.20;0.20;;;;;;;;;;4524995;28;20537;-61
2022/02/06 10:35:09;;;;;;;0.33;0.20;;;;;;;;;;4527101;28;20115;-61
2022/02/06 10:37:22;;;;;;;0.85;0.20;;;;;;;;;;4527088;28;20071;-61
2022/02/06 10:39:33;;;;;;;0.32;0.30;;;;;;;;;;4531077;28;20147;-61
2022/02/06 10:41:45;;;;;;;0.30;0.30;;;;;;;;;;4524925;28;20099;-61
2022/02/06 10:44:00;;;;;;;;;;;;;;;;;;4528592;28;20064;-62
2022/02/06 10:46:12;;;;;;;0.63;0.20;;;;;;;;;;4523563;28;19928;-61
2022/02/06 10:48:23;;;;;;;0.47;0.30;;;;;;;;;;4525745;28;20026;-61
2022/02/06 10:50:36;;;;;;;0.30;0.30;;;;;;;;;;4526129;28;20045;-62
2022/02/06 10:52:47;;;;;;;0.20;0.20;;;;;;;;;;4524807;28;21047;-60
2022/02/06 10:54:59;;;;;;;0.20;0.20;;;;;;;;;;4526005;28;20128;-62
2022/02/06 10:57:11;;;;;;;0.20;0.20;;;;;;;;;;4522164;28;20064;-62
2022/02/06 10:59:22;;;;;;;0.20;0.20;;;;;;;;;;4533875;28;20036;-61
2022/02/06 11:01:38;;;;;;;0.30;0.30;;;;;;;;;;4524321;28;20461;-61
2022/02/06 11:03:52;;;;;;;0.30;0.30;;;;;;;;;;4529012;28;20100;-59
2022/02/06 11:06:11;;;;;;;0.30;0.30;;;;;;;;;;4522715;28;20064;-61
2022/02/06 11:08:30;;;;;;;0.30;0.30;;;;;;;;;;4522602;28;20044;-61
2022/02/06 11:10:43;;;;;;;0.30;0.30;;;;;;;;;;4532786;28;20250;-62
2022/02/06 11:12:56;;;;;;;0.35;0.32;;;;;;;;;;4532031;28;20041;-61
2022/02/06 11:15:23;;;;;;;0.28;0.20;;;;;;;;;;4533597;28;21055;-62
2022/02/06 11:17:37;;;;;;;0.22;0.22;;;;;;;;;;4522516;28;20138;-62
2022/02/06 11:20:01;;;;;;;0.20;0.20;;;;;;;;;;4523886;28;20033;-61
2022/02/06 11:22:12;;;;;;;0.38;0.25;;;;;;;;;;4525623;28;20103;-64
2022/02/06 11:24:22;;;;;;;0.30;0.30;;;;;;;;;;4525356;28;20123;-62
2022/02/06 11:26:33;;;;;;;0.20;0.20;;;;;;;;;;4523751;28;20032;-62
2022/02/06 11:28:44;;;;;;;0.20;0.20;;;;;;;;;;4524525;28;20041;-61
2022/02/06 11:30:54;;;;;;;0.20;0.20;;;;;;;;;;4532491;28;20707;-64
2022/02/06 11:33:06;;;;;;;0.20;0.20;;;;;;;;;;4525102;28;32725;-62
2022/02/06 11:35:21;;;;;;;0.20;0.20;;;;;;;;;;4522837;28;20047;-67
2022/02/06 11:45:19;;;;;;;0.10;0.10;;;;;;;;;;4526222;28;20107;-75
2022/02/06 11:47:32;;;;;;;0.20;0.20;;;;;;;;;;4523573;28;20033;-62
2022/02/06 11:49:44;;;;;;;0.20;0.20;;;;;;;;;;4525586;28;21336;-62
2022/02/06 11:51:56;;;;;;;0.20;0.20;;;;;;;;;;4523058;28;20038;-64
2022/02/06 11:54:30;;;;;;;0.25;0.20;;;;;;;;;;4524106;28;20042;-63
2022/02/06 11:56:42;;;;;;;0.13;0.13;;;;;;;;;;4524317;28;20608;-62
2022/02/06 11:58:52;;;;;;;0.20;0.20;;;;;;;;;;4524146;28;20033;-63
2022/02/06 12:01:06;;;;;;;0.20;0.20;;;;;;;;;;4525526;28;20422;-64
2022/02/06 12:03:16;;;;;;;0.20;0.20;;;;;;;;;;4524088;28;20041;-68
2022/02/06 12:05:27;;;;;;;0.97;0.70;;;;;;;;;;4525789;28;20042;-65
2022/02/06 12:07:53;;;;;;;0.30;0.30;;;;;;;;;;4524020;28;20033;-69
2022/02/06 12:10:03;;;;;;;0.30;0.20;;;;;;;;;;4525172;28;20033;-67
2022/02/06 12:12:14;;;;;;;0.40;0.40;;;;;;;;;;4525438;28;20038;-71
2022/02/06 12:14:29;;;;;;;0.35;0.35;;;;;;;;;;4526735;28;20033;-69
2022/02/06 12:17:20;;;;;;;0.30;0.30;;;;;;;;;;4526017;28;20028;-67
2022/02/06 12:19:32;;;;;;;0.57;0.50;;;;;;;;;;4528203;28;20771;-69
2022/02/06 12:21:42;;;;;;;0.60;0.40;;;;;;;;;;4527133;28;20047;-68
2022/02/06 12:23:55;;;;;;;0.77;0.70;;;;;;;;;;4527270;28;36808;-65
2022/02/06 12:28:42;;;;;;;0.60;0.40;;;;;;;;;;4526386;28;20446;-65
2022/02/06 12:31:19;;;;;;;1.05;0.40;;;;;;;;;;4525543;28;20040;-65
2022/02/06 12:33:43;;;;;;;0.32;0.32;;;;;;;;;;4525742;28;20517;-65
2022/02/06 12:38:22;;;;;;;0.45;0.25;;;;;;;;;;4526789;28;20627;-65
2022/02/06 12:40:33;;;;;;;0.23;0.23;;;;;;;;;;4517122;28;20336;-65
2022/02/06 12:42:46;;;;;;;0.20;0.20;;;;;;;;;;4528256;28;20029;-65
2022/02/06 12:44:58;;;;;;;0.30;0.30;;;;;;;;;;4526604;28;20014;-65
2022/02/06 12:47:11;;;;;;;;;;;;;;;;;;4508929;28;20033;-65
2022/02/06 12:49:29;;;;;;;0.80;0.30;;;;;;;;;;4526128;28;19913;-60
2022/02/06 12:51:39;;;;;;;0.20;0.20;;;;;;;;;;4526532;28;20204;-59
2022/02/06 12:54:04;;;;;;;0.50;0.40;;;;;;;;;;4524938;28;30594;-59
2022/02/06 12:56:27;;;;;;;1.77;1.30;;;;;;;;;;4527501;28;20071;-60
2022/02/06 12:58:38;;;;;;;1.30;0.60;;;;;;;;;;4535235;28;20029;-58
2022/02/06 13:00:51;;;;;;;0.30;0.30;;;;;;;;;;4527827;28;21384;-63
2022/02/06 13:03:24;;;;;;;0.52;0.30;;;;;;;;;;4528542;28;20508;-61
2022/02/06 13:05:34;;;;;;;0.20;0.20;;;;;;;;;;4526155;28;20087;-61
2022/02/06 13:07:45;;;;;;;0.40;0.40;;;;;;;;;;4527257;28;20040;-60
2022/02/06 13:10:02;;;;;;;0.20;0.20;;;;;;;;;;4527145;28;21098;-60
2022/02/06 13:12:25;;;;;;;0.52;0.28;;;;;;;;;;4526157;28;20025;-60
2022/02/06 13:17:23;;;;;;;;;;;;;;;;;;4539581;28;20025;-62
2022/02/06 13:19:49;;;;;;;0.22;0.22;;;;;;;;;;4527993;28;19916;-61
2022/02/06 13:24:51;;;;;;;0.35;0.35;;;;;;;;;;4528153;28;20069;-63
2022/02/06 13:29:52;;;;;;;0.40;0.30;;;;;;;;;;4527589;28;20994;-64
2022/02/06 13:32:15;;;;;;;0.30;0.30;;;;;;;;;;4527289;28;20037;-62
2022/02/06 13:34:43;;;;;;;0.40;0.40;;;;;;;;;;4525602;28;20045;-63
2022/02/06 13:37:09;;;;;;;0.60;0.50;;;;;;;;;;4525877;28;20034;-63
2022/02/06 13:39:35;;;;;;;1.25;0.40;;;;;;;;;;4524099;28;20025;-63
2022/02/06 13:41:45;;;;;;;0.50;0.32;;;;;;;;;;4524933;28;20055;-63
2022/02/06 13:43:57;;;;;;;1.20;1.00;;;;;;;;;;4524609;28;40194;-64
2022/02/06 13:46:21;;;;;;;1.55;1.00;;;;;;;;;;4533172;28;20051;-64
2022/02/06 13:48:32;;;;;;;0.93;0.50;;;;;;;;;;4525721;28;20025;-64
2022/02/06 13:50:51;;;;;;;0.40;0.40;;;;;;;;;;4523899;28;43255;-64
2022/02/06 13:53:09;;;;;;;1.13;0.82;;;;;;;;;;4525038;28;20651;-65
2022/02/06 13:55:21;;;;;;;3.97;2.10;;;;;;;;;;4518057;28;20079;-63
2022/02/06 13:57:35;;;;;;;1.15;0.80;;;;;;;;;;4528740;28;20047;-66
2022/02/06 13:59:47;;;;;;;1.88;0.88;;;;;;;;;;4527408;28;20021;-63
2022/02/06 14:02:04;;;;;;;2.55;1.50;;;;;;;;;;4525800;28;20025;-63
2022/02/06 14:04:21;;;;;;;2.55;1.38;;;;;;;;;;4526239;28;20585;-63
2022/02/06 14:06:40;;;;;;;0.30;0.30;;;;;;;;;;4524665;28;20034;-63
2022/02/06 14:09:00;;;;;;;0.20;0.20;;;;;;;;;;4527422;28;20080;-63
2022/02/06 14:11:18;;;;;;;0.30;0.20;;;;;;;;;;4526538;28;20067;-63
2022/02/06 14:13:29;;;;;;;0.30;0.30;;;;;;;;;;4534433;28;20048;-63
2022/02/06 14:15:40;;;;;;;0.20;0.20;;;;;;;;;;4525381;28;20025;-63
2022/02/06 14:17:53;;;;;;;0.20;0.20;;;;;;;;;;4528003;28;20033;-62
2022/02/06 14:20:09;;;;;;;0.20;0.20;;;;;;;;;;4524649;28;20037;-62
2022/02/06 14:22:37;;;;;;;0.73;0.20;;;;;;;;;;4525063;28;20020;-62
2022/02/06 14:24:56;;;;;;;0.40;0.20;;;;;;;;;;4517612;28;20247;-61
2022/02/06 14:27:06;;;;;;;0.25;0.25;;;;;;;;;;4515802;28;20750;-60
2022/02/06 14:29:17;;;;;;;0.20;0.20;;;;;;;;;;4525191;28;32825;-60
2022/02/06 14:31:30;;;;;;;0.20;0.20;;;;;;;;;;4526017;28;20025;-61
2022/02/06 14:33:43;;;;;;;0.10;0.10;;;;;;;;;;4526524;28;20131;-61
2022/02/06 14:35:58;;;;;;;0.20;0.20;;;;;;;;;;4525228;28;20521;-62
2022/02/06 14:38:16;;;;;;;0.30;0.30;;;;;;;;;;4526505;28;20011;-73
2022/02/06 14:42:52;;;;;;;0.70;0.40;;;;;;;;;;4525191;28;20025;-71
2022/02/06 14:45:10;;;;;;;1.40;1.10;;;;;;;;;;4522670;28;20152;-69
2022/02/06 14:47:20;;;;;;;0.50;0.40;;;;;;;;;;4518269;28;20045;-69
2022/02/06 14:49:31;;;;;;;0.20;0.20;;;;;;;;;;4522262;28;34169;-67
2022/02/06 14:51:41;;;;;;;0.43;0.23;;;;;;;;;;4514562;28;20052;-69
2022/02/06 14:53:59;;;;;;;0.27;0.27;;;;;;;;;;4519854;28;20041;-74
2022/02/06 14:56:10;;;;;;;0.63;0.30;;;;;;;;;;4523083;28;20548;-73
2022/02/06 14:58:20;;;;;;;0.30;0.30;;;;;;;;;;4522388;28;20259;-73
2022/02/06 15:00:30;;;;;;;1.70;1.10;;;;;;;;;;4523544;28;20044;-77
2022/02/06 15:02:44;;;;;;;2.57;1.50;;;;;;;;;;4522401;28;20033;-78
2022/02/06 15:04:54;;;;;;;2.13;1.20;;;;;;;;;;4501793;28;20129;-77
2022/02/06 15:07:05;;;;;;;1.63;1.20;;;;;;;;;;4506096;28;20118;-76
2022/02/06 15:09:15;;;;;;;1.70;1.10;;;;;;;;;;4516751;28;20025;-73
2022/02/06 15:11:25;;;;;;;1.27;0.87;;;;;;;;;;4507743;28;20077;-75
2022/02/06 15:13:36;;;;;;;2.43;1.40;;;;;;;;;;4499413;28;38668;-78
2022/02/06 15:15:55;;;;;;;1.27;0.97;;;;;;;;;;4497833;28;20144;-76
2022/02/06 15:20:31;;;;;;;1.65;1.10;;;;;;;;;;4515896;28;20050;-75
2022/02/06 15:22:42;;;;;;;2.90;1.20;;;;;;;;;;4515852;28;42122;-73
2022/02/06 15:24:52;;;;;;;2.03;1.37;;;;;;;;;;4524911;28;20776;-72
2022/02/06 15:27:02;;;;;;;1.50;1.03;;;;;;;;;;4526820;28;20091;-75
2022/02/06 15:29:13;;;;;;;1.03;0.80;;;;;;;;;;4502459;28;20194;-74
2022/02/06 15:31:24;;;;;;;1.47;1.20;;;;;;;;;;4515451;28;20033;-76
2022/02/06 15:33:35;;;;;;;1.70;1.30;;;;;;;;;;4508914;28;20092;-73
2022/02/06 15:35:46;;;;;;;1.70;1.25;;;;;;;;;;4485174;28;20147;-72
2022/02/06 15:38:00;;;;;;;1.57;0.70;;;;;;;;;;4513250;28;20621;-69
2022/02/06 15:40:16;;;;;;;0.80;0.70;;;;;;;;;;4526559;28;20025;-71
2022/02/06 15:42:26;;;;;;;0.80;0.60;;;;;;;;;;4526514;28;20029;-68
2022/02/06 15:44:37;;;;;;;0.53;0.40;;;;;;;;;;4525762;28;35632;-70
2022/02/06 15:46:47;;;;;;;0.30;0.30;;;;;;;;;;4526018;28;20810;-70
2022/02/06 15:48:57;;;;;;;0.60;0.60;;;;;;;;;;4526305;28;20044;-70
2022/02/06 15:51:08;;;;;;;0.90;0.60;;;;;;;;;;4523285;28;20080;-70
2022/02/06 15:53:18;;;;;;;0.70;0.60;;;;;;;;;;4524952;28;40925;-69
2022/02/06 15:55:29;;;;;;;0.87;0.70;;;;;;;;;;4526340;28;20036;-69
2022/02/06 15:57:39;;;;;;;0.63;0.50;;;;;;;;;;4509389;28;20057;-68